createdAt,value
2023-05-20T00:01:05.196Z,20.15
2023-05-20T00:03:32.637Z,20.16
2023-05-20T00:05:59.989Z,20.17
2023-05-20T00:08:27.068Z,20.21
2023-05-20T00:10:54.138Z,20.25
2023-05-20T00:13:21.315Z,20.24
2023-05-20T00:15:48.432Z,20.23
2023-05-20T00:18:17.326Z,20.10
2023-05-20T00:20:44.392Z,20.14
2023-05-20T00:23:14.391Z,20.13
2023-05-20T00:25:41.504Z,20.07
2023-05-20T00:28:08.547Z,20.08
2023-05-20T00:30:35.778Z,20.06
2023-05-20T00:33:02.978Z,19.99
2023-05-20T00:35:30.173Z,19.95
2023-05-20T00:37:57.237Z,19.92
2023-05-20T00:40:25.383Z,19.84
2023-05-20T00:42:52.968Z,19.75
2023-05-20T00:45:20.081Z,19.80
2023-05-20T00:47:47.550Z,19.84
2023-05-20T00:50:15.397Z,19.80
2023-05-20T00:52:45.412Z,19.64
2023-05-20T00:55:12.785Z,19.76
2023-05-20T00:57:41.039Z,19.73
2023-05-20T01:00:46.168Z,19.70
2023-05-20T01:03:26.234Z,19.77
2023-05-20T01:06:03.044Z,19.64
2023-05-20T01:08:47.592Z,19.65
2023-05-20T01:12:02.686Z,19.65
2023-05-20T01:14:51.276Z,19.67
2023-05-20T01:17:25.171Z,19.73
2023-05-20T01:20:10.551Z,19.81
2023-05-20T01:23:01.758Z,19.71
2023-05-20T01:25:39.278Z,19.83
2023-05-20T01:28:18.333Z,19.83
2023-05-20T01:31:00.405Z,19.87
2023-05-20T01:33:33.713Z,19.79
2023-05-20T01:36:09.619Z,19.75
2023-05-20T01:38:54.745Z,19.81
2023-05-20T01:41:35.431Z,19.56
2023-05-20T01:44:10.742Z,19.55
2023-05-20T01:46:45.188Z,19.61
2023-05-20T01:49:21.437Z,19.52
2023-05-20T01:52:01.126Z,19.28
2023-05-20T01:54:41.342Z,19.40
2023-05-20T01:57:18.980Z,19.44
2023-05-20T02:03:12.781Z,19.44
2023-05-20T02:05:39.927Z,19.38
2023-05-20T02:08:07.508Z,19.42
2023-05-20T02:10:34.605Z,19.34
2023-05-20T02:13:04.217Z,19.27
2023-05-20T02:15:35.186Z,19.29
2023-05-20T02:18:05.790Z,19.25
2023-05-20T02:20:36.475Z,19.40
2023-05-20T02:23:06.078Z,19.41
2023-05-20T02:25:35.712Z,19.39
2023-05-20T02:28:06.159Z,19.42
2023-05-20T02:30:36.001Z,19.41
2023-05-20T02:33:03.354Z,19.34
2023-05-20T02:35:30.861Z,19.32
2023-05-20T02:37:58.022Z,19.39
2023-05-20T02:40:28.044Z,19.39
2023-05-20T02:42:55.149Z,19.37
2023-05-20T02:45:22.391Z,19.37
2023-05-20T02:47:49.795Z,19.45
2023-05-20T02:50:18.429Z,19.49
2023-05-20T02:52:45.887Z,19.49
2023-05-20T02:55:13.425Z,19.57
2023-05-20T02:57:40.734Z,19.66
2023-05-20T03:00:16.681Z,19.62
2023-05-20T03:02:46.801Z,19.56
2023-05-20T03:05:14.763Z,19.62
2023-05-20T03:07:41.938Z,19.68
2023-05-20T03:10:09.730Z,19.67
2023-05-20T03:12:39.233Z,19.65
2023-05-20T03:15:11.043Z,19.52
2023-05-20T03:17:38.369Z,19.41
2023-05-20T03:20:07.513Z,19.38
2023-05-20T03:22:40.376Z,19.48
2023-05-20T03:25:07.960Z,19.55
2023-05-20T03:27:38.324Z,19.59
2023-05-20T03:30:06.579Z,19.62
2023-05-20T03:32:33.725Z,19.63
2023-05-20T03:35:01.242Z,19.59
2023-05-20T03:37:28.301Z,19.57
2023-05-20T03:39:55.785Z,19.65
2023-05-20T03:42:22.962Z,19.65
2023-05-20T03:44:51.036Z,19.75
2023-05-20T03:47:19.027Z,19.62
2023-05-20T03:49:46.445Z,19.66
2023-05-20T03:52:14.604Z,19.76
2023-05-20T03:54:41.887Z,19.80
2023-05-20T03:57:13.949Z,19.80
2023-05-20T03:59:41.330Z,19.62
2023-05-20T04:02:23.516Z,19.49
2023-05-20T04:04:53.196Z,19.45
2023-05-20T04:07:20.969Z,19.55
2023-05-20T04:09:48.127Z,19.56
2023-05-20T04:12:15.454Z,19.49
2023-05-20T04:14:42.561Z,19.52
2023-05-20T04:17:10.772Z,19.43
2023-05-20T04:19:38.471Z,19.40
2023-05-20T04:22:08.050Z,19.31
2023-05-20T04:24:35.344Z,19.31
2023-05-20T04:27:02.490Z,19.25
2023-05-20T04:29:30.286Z,19.19
2023-05-20T04:31:58.973Z,19.12
2023-05-20T04:34:27.093Z,19.09
2023-05-20T04:36:54.740Z,19.13
2023-05-20T04:39:21.981Z,19.06
2023-05-20T04:41:54.989Z,18.99
2023-05-20T04:44:24.900Z,18.94
2023-05-20T04:46:52.453Z,18.97
2023-05-20T04:49:20.010Z,18.84
2023-05-20T04:51:50.278Z,18.91
2023-05-20T04:54:21.321Z,18.67
2023-05-20T04:56:51.277Z,18.72
2023-05-20T04:59:21.287Z,18.58
2023-05-20T05:01:48.519Z,18.52
2023-05-20T05:04:15.926Z,18.69
2023-05-20T05:06:43.153Z,18.67
2023-05-20T05:09:10.811Z,18.65
2023-05-20T05:11:41.161Z,18.82
2023-05-20T05:14:08.801Z,18.81
2023-05-20T05:16:36.604Z,18.86
2023-05-20T05:19:03.824Z,18.93
2023-05-20T05:21:34.462Z,18.82
2023-05-20T05:24:01.899Z,18.83
2023-05-20T05:26:29.195Z,18.71
2023-05-20T05:28:56.850Z,18.70
2023-05-20T05:31:24.093Z,18.80
2023-05-20T05:33:51.440Z,18.86
2023-05-20T05:36:18.703Z,18.81
2023-05-20T05:38:46.139Z,18.85
2023-05-20T05:41:13.743Z,18.81
2023-05-20T05:43:41.104Z,18.93
2023-05-20T05:46:09.870Z,18.94
2023-05-20T05:48:38.981Z,18.97
2023-05-20T05:51:06.192Z,18.99
2023-05-20T05:53:34.009Z,18.88
2023-05-20T05:56:04.185Z,18.86
2023-05-20T05:58:31.404Z,18.91
2023-05-20T06:00:58.934Z,18.80
2023-05-20T06:03:26.323Z,19.00
2023-05-20T06:05:56.100Z,18.81
2023-05-20T06:08:23.163Z,18.97
2023-05-20T06:10:50.908Z,19.06
2023-05-20T06:13:18.677Z,19.16
2023-05-20T06:15:46.444Z,19.04
2023-05-20T06:18:13.714Z,19.16
2023-05-20T06:20:41.309Z,19.21
2023-05-20T06:23:08.448Z,19.31
2023-05-20T06:25:44.171Z,19.43
2023-05-20T06:28:12.841Z,19.33
2023-05-20T06:30:40.066Z,19.31
2023-05-20T06:33:07.377Z,19.16
2023-05-20T06:35:35.926Z,19.38
2023-05-20T06:38:05.151Z,19.23
2023-05-20T06:40:32.294Z,19.16
2023-05-20T06:42:59.593Z,19.30
2023-05-20T06:45:46.793Z,19.36
2023-05-20T06:48:28.441Z,19.31
2023-05-20T06:51:00.568Z,19.39
2023-05-20T06:53:36.379Z,19.48
2023-05-20T06:56:04.693Z,19.61
2023-05-20T06:58:33.835Z,19.73
2023-05-20T07:01:04.599Z,19.70
2023-05-20T07:03:35.957Z,19.85
2023-05-20T07:06:08.261Z,19.99
2023-05-20T07:08:35.580Z,20.13
2023-05-20T07:11:05.032Z,20.08
2023-05-20T07:13:36.051Z,20.02
2023-05-20T07:16:09.925Z,20.24
2023-05-20T07:18:45.138Z,20.15
2023-05-20T07:21:15.135Z,20.11
2023-05-20T07:24:28.510Z,20.15
2023-05-20T07:27:01.769Z,20.25
2023-05-20T07:29:29.138Z,20.34
2023-05-20T07:31:59.126Z,20.69
2023-05-20T07:34:27.050Z,20.55
2023-05-20T07:37:02.012Z,20.70
2023-05-20T07:39:32.219Z,20.97
2023-05-20T07:41:59.626Z,20.85
2023-05-20T07:44:34.929Z,20.80
2023-05-20T07:47:14.845Z,20.78
2023-05-20T07:49:53.082Z,20.82
2023-05-20T07:52:22.896Z,21.04
2023-05-20T07:54:51.624Z,21.07
2023-05-20T07:57:19.586Z,21.24
2023-05-20T07:59:50.181Z,21.35
2023-05-20T08:02:18.013Z,21.45
2023-05-20T08:04:47.004Z,21.17
2023-05-20T08:07:17.231Z,21.34
2023-05-20T08:09:52.314Z,21.28
2023-05-20T08:12:21.607Z,21.14
2023-05-20T08:14:53.160Z,21.49
2023-05-20T08:17:22.107Z,21.56
2023-05-20T08:19:49.382Z,21.42
2023-05-20T08:22:16.852Z,21.60
2023-05-20T08:24:48.384Z,21.73
2023-05-20T08:27:20.434Z,21.75
2023-05-20T08:29:47.833Z,21.86
2023-05-20T08:32:15.491Z,21.61
2023-05-20T08:34:52.532Z,22.02
2023-05-20T08:37:19.694Z,22.04
2023-05-20T08:39:49.405Z,22.15
2023-05-20T08:42:28.026Z,22.40
2023-05-20T08:44:58.724Z,22.78
2023-05-20T08:47:27.292Z,22.70
2023-05-20T08:49:54.590Z,22.85
2023-05-20T08:52:27.807Z,22.88
2023-05-20T08:54:58.640Z,23.05
2023-05-20T08:57:29.270Z,23.22
2023-05-20T08:59:57.587Z,23.31
2023-05-20T09:02:24.681Z,23.61
2023-05-20T09:04:52.643Z,23.40
2023-05-20T09:07:29.435Z,23.73
2023-05-20T09:09:58.174Z,23.97
2023-05-20T09:12:25.506Z,24.15
2023-05-20T09:14:52.586Z,24.31
2023-05-20T09:17:22.292Z,24.17
2023-05-20T09:19:53.789Z,24.37
2023-05-20T09:22:25.733Z,24.57
2023-05-20T09:24:53.192Z,25.06
2023-05-20T09:27:24.968Z,25.17
2023-05-20T09:29:52.352Z,25.33
2023-05-20T09:32:24.223Z,25.42
2023-05-20T09:34:54.746Z,25.42
2023-05-20T09:37:27.625Z,24.82
2023-05-20T09:40:10.337Z,24.88
2023-05-20T09:42:44.577Z,24.39
2023-05-20T09:45:11.806Z,23.83
2023-05-20T09:47:42.588Z,24.47
2023-05-20T09:50:10.585Z,24.21
2023-05-20T09:52:39.102Z,24.04
2023-05-20T09:55:07.848Z,23.99
2023-05-20T09:57:35.906Z,24.09
2023-05-20T10:00:08.979Z,24.40
2023-05-20T10:02:56.863Z,24.51
2023-05-20T10:05:29.793Z,24.37
2023-05-20T10:08:33.013Z,24.54
2023-05-20T10:11:36.875Z,24.53
2023-05-20T10:14:29.212Z,24.45
2023-05-20T10:17:20.704Z,24.31
2023-05-20T10:19:50.065Z,24.43
2023-05-20T10:22:31.897Z,24.49
2023-05-20T10:25:00.742Z,23.98
2023-05-20T10:27:28.072Z,24.26
2023-05-20T10:30:00.883Z,24.84
2023-05-20T10:32:32.556Z,24.67
2023-05-20T10:35:02.040Z,24.37
2023-05-20T10:37:33.257Z,23.98
2023-05-20T10:40:06.130Z,24.10
2023-05-20T10:42:33.523Z,24.37
2023-05-20T10:45:00.752Z,24.03
2023-05-20T10:47:27.974Z,24.61
2023-05-20T10:49:55.784Z,24.41
2023-05-20T10:52:24.630Z,24.69
2023-05-20T10:54:56.138Z,24.97
2023-05-20T10:57:24.460Z,24.84
2023-05-20T10:59:51.893Z,24.76
2023-05-20T11:02:20.333Z,25.26
2023-05-20T11:04:48.036Z,25.28
2023-05-20T11:07:29.403Z,25.85
2023-05-20T11:09:59.428Z,25.69
2023-05-20T11:12:35.617Z,26.09
2023-05-20T11:15:03.832Z,25.80
2023-05-20T11:17:31.264Z,25.73
2023-05-20T11:20:01.146Z,25.47
2023-05-20T11:22:28.506Z,25.19
2023-05-20T11:24:55.633Z,25.00
2023-05-20T11:27:23.050Z,25.53
2023-05-20T11:29:51.249Z,25.78
2023-05-20T11:32:21.674Z,25.76
2023-05-20T11:34:52.358Z,25.90
2023-05-20T11:37:20.323Z,25.54
2023-05-20T11:39:47.563Z,25.70
2023-05-20T11:42:17.886Z,26.14
2023-05-20T11:44:45.499Z,26.10
2023-05-20T11:47:12.588Z,25.88
2023-05-20T11:49:40.759Z,26.15
2023-05-20T11:52:09.960Z,25.20
2023-05-20T11:54:37.392Z,25.12
2023-05-20T11:57:06.886Z,25.81
2023-05-20T11:59:34.865Z,26.16
2023-05-20T12:02:01.990Z,26.24
2023-05-20T12:04:29.617Z,26.19
2023-05-20T12:06:56.985Z,26.10
2023-05-20T12:09:24.880Z,26.46
2023-05-20T12:11:52.044Z,26.72
2023-05-20T12:14:19.587Z,27.09
2023-05-20T12:16:48.589Z,26.53
2023-05-20T12:19:21.257Z,26.34
2023-05-20T12:21:50.910Z,26.57
2023-05-20T12:24:19.885Z,26.61
2023-05-20T12:26:47.120Z,26.35
2023-05-20T12:29:14.356Z,26.11
2023-05-20T12:31:41.605Z,26.20
2023-05-20T12:34:08.816Z,25.86
2023-05-20T12:36:35.893Z,25.18
2023-05-20T12:39:03.378Z,25.50
2023-05-20T12:41:33.853Z,25.69
2023-05-20T12:44:01.232Z,25.69
2023-05-20T12:46:28.330Z,26.10
2023-05-20T12:48:56.089Z,26.45
2023-05-20T12:51:23.301Z,26.29
2023-05-20T12:53:50.470Z,26.01
2023-05-20T12:56:18.061Z,26.58
2023-05-20T12:58:46.324Z,26.29
2023-05-20T13:01:13.526Z,26.06
2023-05-20T13:03:40.791Z,25.55
2023-05-20T13:06:11.112Z,25.74
2023-05-20T13:08:38.301Z,25.66
2023-05-20T13:11:05.479Z,25.65
2023-05-20T13:13:32.741Z,25.90
2023-05-20T13:15:59.877Z,25.07
2023-05-20T13:18:27.372Z,25.31
2023-05-20T13:20:57.330Z,25.27
2023-05-20T13:23:27.227Z,25.35
2023-05-20T13:25:54.595Z,25.03
2023-05-20T13:28:22.312Z,25.19
2023-05-20T13:30:50.425Z,24.31
2023-05-20T13:33:17.484Z,24.30
2023-05-20T13:35:44.673Z,24.52
2023-05-20T13:38:12.500Z,25.26
2023-05-20T13:40:39.615Z,24.68
2023-05-20T13:43:06.712Z,24.56
2023-05-20T13:45:33.883Z,24.15
2023-05-20T13:48:01.097Z,24.62
2023-05-20T13:50:28.215Z,24.58
2023-05-20T13:52:55.516Z,24.95
2023-05-20T13:55:24.707Z,24.93
2023-05-20T13:57:58.420Z,24.90
2023-05-20T14:00:25.741Z,24.73
2023-05-20T14:02:56.648Z,25.41
2023-05-20T14:05:25.064Z,25.41
2023-05-20T14:07:52.241Z,25.67
2023-05-20T14:10:22.118Z,26.02
2023-05-20T14:12:50.012Z,25.79
2023-05-20T14:15:17.216Z,25.78
2023-05-20T14:17:44.837Z,25.45
2023-05-20T14:20:12.623Z,25.69
2023-05-20T14:22:39.743Z,25.93
2023-05-20T14:25:07.437Z,25.99
2023-05-20T14:27:34.878Z,25.99
2023-05-20T14:30:02.031Z,25.41
2023-05-20T14:32:29.628Z,25.68
2023-05-20T14:34:56.816Z,25.53
2023-05-20T14:37:24.074Z,25.78
2023-05-20T14:39:51.245Z,25.77
2023-05-20T14:42:23.727Z,25.84
2023-05-20T14:44:54.758Z,25.33
2023-05-20T14:47:22.687Z,25.91
2023-05-20T14:49:56.396Z,25.99
2023-05-20T14:52:44.276Z,25.83
2023-05-20T14:55:20.802Z,25.72
2023-05-20T14:57:53.976Z,25.15
2023-05-20T15:00:36.316Z,25.01
2023-05-20T15:03:11.256Z,24.85
2023-05-20T15:05:44.576Z,24.63
2023-05-20T15:08:18.323Z,25.09
2023-05-20T15:11:05.918Z,25.10
2023-05-20T15:13:57.566Z,24.99
2023-05-20T15:16:28.145Z,25.01
2023-05-20T15:18:58.191Z,24.82
2023-05-20T15:21:31.822Z,25.10
2023-05-20T15:24:08.168Z,24.23
2023-05-20T15:26:35.907Z,24.48
2023-05-20T15:29:05.368Z,24.49
2023-05-20T15:31:37.169Z,24.21
2023-05-20T15:34:10.128Z,24.34
2023-05-20T15:36:40.432Z,24.53
2023-05-20T15:39:13.819Z,24.72
2023-05-20T15:41:42.531Z,24.19
2023-05-20T15:44:09.799Z,24.56
2023-05-20T15:46:44.153Z,24.48
2023-05-20T15:49:12.820Z,24.08
2023-05-20T15:51:41.126Z,23.99
2023-05-20T15:54:14.972Z,24.21
2023-05-20T15:56:42.090Z,23.99
2023-05-20T15:59:09.288Z,23.82
2023-05-20T16:01:42.352Z,24.02
2023-05-20T16:04:18.073Z,23.40
2023-05-20T16:09:26.597Z,23.08
2023-05-20T16:11:56.252Z,23.07
2023-05-20T16:17:04.505Z,23.10
2023-05-20T16:19:34.109Z,23.28
2023-05-20T16:22:01.693Z,23.12
2023-05-20T16:24:28.778Z,23.43
2023-05-20T16:26:56.349Z,22.98
2023-05-20T16:29:25.552Z,22.95
2023-05-20T16:31:53.193Z,23.35
2023-05-20T16:34:20.489Z,23.24
2023-05-20T16:36:47.764Z,23.30
2023-05-20T16:39:16.086Z,23.64
2023-05-20T16:41:43.661Z,23.60
2023-05-20T16:44:21.333Z,23.21
2023-05-20T16:46:48.532Z,23.17
2023-05-20T16:49:17.982Z,23.12
2023-05-20T16:51:45.299Z,23.09
2023-05-20T16:54:12.496Z,23.28
2023-05-20T16:56:39.726Z,23.44
2023-05-20T16:59:06.981Z,23.65
2023-05-20T17:01:34.321Z,23.60
2023-05-20T17:04:01.617Z,23.66
2023-05-20T17:06:28.938Z,23.43
2023-05-20T17:08:59.229Z,23.34
2023-05-20T17:11:31.529Z,23.52
2023-05-20T17:13:59.421Z,23.56
2023-05-20T17:16:29.452Z,23.56
2023-05-20T17:18:57.877Z,23.64
2023-05-20T17:21:25.250Z,23.56
2023-05-20T17:23:52.419Z,23.34
2023-05-20T17:26:19.611Z,23.30
2023-05-20T17:28:46.773Z,23.04
2023-05-20T17:31:14.157Z,22.85
2023-05-20T17:33:41.374Z,23.23
2023-05-20T17:36:08.657Z,22.88
2023-05-20T17:38:36.218Z,22.73
2023-05-20T17:41:03.792Z,22.80
2023-05-20T17:43:31.341Z,22.86
2023-05-20T17:45:58.633Z,22.96
2023-05-20T17:48:26.590Z,22.75
2023-05-20T17:50:56.756Z,22.75
2023-05-20T17:53:26.941Z,22.57
2023-05-20T17:55:54.397Z,22.87
2023-05-20T17:58:25.000Z,22.69
2023-05-20T18:00:52.753Z,22.78
2023-05-20T18:03:20.559Z,22.83
2023-05-20T18:05:47.963Z,22.86
2023-05-20T18:08:15.129Z,22.89
2023-05-20T18:10:42.644Z,22.66
2023-05-20T18:13:10.119Z,22.50
2023-05-20T18:15:37.482Z,22.22
2023-05-20T18:18:04.970Z,22.01
2023-05-20T18:20:32.460Z,22.32
2023-05-20T18:22:59.630Z,22.39
2023-05-20T18:25:26.924Z,22.42
2023-05-20T18:28:00.075Z,22.31
2023-05-20T18:30:27.461Z,22.38
2023-05-20T18:32:57.707Z,22.54
2023-05-20T18:35:24.877Z,22.47
2023-05-20T18:37:52.065Z,22.25
2023-05-20T18:40:22.159Z,22.34
2023-05-20T18:42:52.456Z,22.09
2023-05-20T18:45:22.780Z,22.01
2023-05-20T18:47:54.567Z,21.96
2023-05-20T18:50:21.921Z,21.87
2023-05-20T18:52:50.107Z,22.12
2023-05-20T18:55:17.370Z,22.16
2023-05-20T18:57:44.703Z,22.08
2023-05-20T19:00:12.715Z,22.12
2023-05-20T19:02:40.868Z,21.97
2023-05-20T19:05:11.429Z,22.10
2023-05-20T19:07:39.202Z,22.08
2023-05-20T19:10:07.099Z,22.24
2023-05-20T19:12:34.273Z,22.44
2023-05-20T19:15:01.666Z,22.36
2023-05-20T19:17:28.935Z,22.57
2023-05-20T19:19:56.338Z,22.58
2023-05-20T19:22:23.520Z,22.46
2023-05-20T19:24:50.920Z,22.53
2023-05-20T19:27:18.231Z,22.52
2023-05-20T19:29:45.280Z,22.61
2023-05-20T19:32:12.474Z,22.57
2023-05-20T19:34:43.329Z,22.41
2023-05-20T19:37:13.420Z,22.46
2023-05-20T19:39:40.845Z,22.14
2023-05-20T19:42:08.236Z,22.09
2023-05-20T19:44:38.780Z,22.31
2023-05-20T19:47:08.491Z,22.39
2023-05-20T19:49:39.925Z,22.34
2023-05-20T19:52:07.684Z,22.60
2023-05-20T19:54:34.906Z,22.45
2023-05-20T19:57:02.238Z,22.54
2023-05-20T19:59:32.243Z,22.65
2023-05-20T20:02:03.483Z,22.52
2023-05-20T20:04:30.750Z,22.74
2023-05-20T20:07:01.106Z,22.75
2023-05-20T20:09:31.478Z,22.72
2023-05-20T20:12:00.463Z,22.76
2023-05-20T20:14:29.610Z,22.85
2023-05-20T20:17:00.056Z,22.84
2023-05-20T20:19:29.918Z,22.83
2023-05-20T20:22:00.350Z,22.85
2023-05-20T20:24:27.574Z,22.82
2023-05-20T20:26:58.389Z,22.85
2023-05-20T20:29:28.522Z,22.88
2023-05-20T20:31:58.529Z,22.80
2023-05-20T20:34:28.910Z,22.85
2023-05-20T20:37:01.711Z,22.66
2023-05-20T20:39:45.541Z,22.46
2023-05-20T20:42:12.743Z,22.43
2023-05-20T20:44:42.876Z,22.33
2023-05-20T20:47:14.976Z,22.10
2023-05-20T20:49:42.321Z,22.18
2023-05-20T20:52:15.060Z,21.98
2023-05-20T20:54:43.349Z,21.78
2023-05-20T20:57:23.255Z,21.50
2023-05-20T20:59:58.000Z,21.89
2023-05-20T21:02:25.281Z,21.90
2023-05-20T21:04:52.463Z,21.58
2023-05-20T21:07:25.751Z,21.96
2023-05-20T21:09:55.804Z,21.80
2023-05-20T21:12:26.537Z,21.78
2023-05-20T21:14:53.676Z,21.81
2023-05-20T21:17:23.993Z,21.77
2023-05-20T21:19:55.000Z,21.88
2023-05-20T21:22:29.260Z,21.88
2023-05-20T21:24:58.802Z,21.80
2023-05-20T21:27:26.185Z,21.78
2023-05-20T21:30:05.212Z,21.84
2023-05-20T21:32:32.565Z,22.00
2023-05-20T21:35:00.939Z,21.94
2023-05-20T21:37:34.277Z,22.08
2023-05-20T21:40:02.146Z,22.10
2023-05-20T21:42:37.153Z,22.01
2023-05-20T21:45:09.458Z,22.08
2023-05-20T21:47:37.045Z,22.15
2023-05-20T21:50:21.334Z,22.07
2023-05-20T21:52:56.396Z,22.21
2023-05-20T21:55:24.063Z,22.29
2023-05-20T21:57:51.443Z,22.32
2023-05-20T22:00:20.820Z,22.38
2023-05-20T22:02:49.120Z,22.39
2023-05-20T22:05:17.399Z,22.44
2023-05-20T22:07:44.930Z,22.43
2023-05-20T22:10:13.886Z,22.42
2023-05-20T22:12:44.666Z,22.40
2023-05-20T22:15:12.657Z,22.44
2023-05-20T22:17:45.250Z,22.43
2023-05-20T22:20:12.968Z,22.35
2023-05-20T22:22:40.175Z,22.29
2023-05-20T22:25:07.718Z,22.26
2023-05-20T22:27:35.251Z,22.18
2023-05-20T22:30:05.288Z,22.18
2023-05-20T22:32:36.196Z,22.18
2023-05-20T22:35:05.057Z,22.11
2023-05-20T22:37:35.577Z,22.16
2023-05-20T22:40:03.954Z,22.23
2023-05-20T22:42:31.212Z,22.26
2023-05-20T22:44:58.679Z,22.25
2023-05-20T22:47:25.849Z,22.25
2023-05-20T22:49:57.967Z,22.20
2023-05-20T22:52:28.289Z,22.21
2023-05-20T22:54:56.977Z,22.27
2023-05-20T22:57:25.558Z,22.26
2023-05-20T22:59:54.095Z,22.24
2023-05-20T23:02:28.068Z,22.31
2023-05-20T23:04:55.277Z,22.32
2023-05-20T23:07:22.652Z,22.25
2023-05-20T23:09:50.020Z,22.22
2023-05-20T23:12:17.392Z,22.26
2023-05-20T23:14:44.688Z,22.30
2023-05-20T23:17:12.041Z,22.30
2023-05-20T23:19:42.031Z,22.26
2023-05-20T23:22:09.325Z,22.26
2023-05-20T23:24:36.914Z,22.27
2023-05-20T23:27:04.694Z,22.21
2023-05-20T23:29:32.341Z,22.20
2023-05-20T23:32:02.912Z,22.23
2023-05-20T23:34:33.596Z,22.25
2023-05-20T23:37:00.791Z,22.25
2023-05-20T23:39:28.443Z,22.24
2023-05-20T23:41:58.847Z,22.26
2023-05-20T23:44:29.394Z,22.25
2023-05-20T23:46:56.660Z,22.23
2023-05-20T23:49:27.334Z,22.17
2023-05-20T23:51:54.660Z,22.09
2023-05-20T23:54:23.163Z,21.99
2023-05-20T23:56:51.754Z,22.05
2023-05-20T23:59:19.226Z,22.03
